sensor_id;sensor_type;location;lat;lon;timestamp;P1;durP1;ratioP1;P2;durP2;ratioP2
35530;SDS011;21637;53.352;-6.356;2024-02-26T00:01:40;13.80;;;8.48;;
35530;SDS011;21637;53.352;-6.356;2024-02-26T00:04:06;13.57;;;8.88;;
35530;SDS011;21637;53.352;-6.356;2024-02-26T00:06:31;20.40;;;9.23;;
35530;SDS011;21637;53.352;-6.356;2024-02-26T00:08:57;13.60;;;8.82;;
35530;SDS011;21637;53.352;-6.356;2024-02-26T00:11:23;14.07;;;9.30;;
35530;SDS011;21637;53.352;-6.356;2024-02-26T00:13:49;15.52;;;9.43;;
35530;SDS011;21637;53.352;-6.356;2024-02-26T00:16:15;15.05;;;9.18;;
35530;SDS011;21637;53.352;-6.356;2024-02-26T00:18:40;12.57;;;8.02;;
35530;SDS011;21637;53.352;-6.356;2024-02-26T00:21:06;14.52;;;9.20;;
35530;SDS011;21637;53.352;-6.356;2024-02-26T00:23:32;16.42;;;9.65;;
35530;SDS011;21637;53.352;-6.356;2024-02-26T00:25:57;11.75;;;8.30;;
35530;SDS011;21637;53.352;-6.356;2024-02-26T00:28:23;13.07;;;8.25;;
35530;SDS011;21637;53.352;-6.356;2024-02-26T00:30:54;17.35;;;9.60;;
35530;SDS011;21637;53.352;-6.356;2024-02-26T00:33:21;14.48;;;9.63;;
35530;SDS011;21637;53.352;-6.356;2024-02-26T00:35:47;14.02;;;9.43;;
35530;SDS011;21637;53.352;-6.356;2024-02-26T00:38:13;13.23;;;8.27;;
35530;SDS011;21637;53.352;-6.356;2024-02-26T00:40:39;11.20;;;8.40;;
35530;SDS011;21637;53.352;-6.356;2024-02-26T00:43:08;13.05;;;9.95;;
35530;SDS011;21637;53.352;-6.356;2024-02-26T00:45:34;14.63;;;9.90;;
35530;SDS011;21637;53.352;-6.356;2024-02-26T00:48:00;14.98;;;9.90;;
35530;SDS011;21637;53.352;-6.356;2024-02-26T00:50:34;12.40;;;9.10;;
35530;SDS011;21637;53.352;-6.356;2024-02-26T00:53:00;15.00;;;9.63;;
35530;SDS011;21637;53.352;-6.356;2024-02-26T00:55:26;16.50;;;9.40;;
35530;SDS011;21637;53.352;-6.356;2024-02-26T00:57:52;13.15;;;9.13;;
35530;SDS011;21637;53.352;-6.356;2024-02-26T01:00:18;15.20;;;10.32;;
35530;SDS011;21637;53.352;-6.356;2024-02-26T01:02:44;15.48;;;9.55;;
35530;SDS011;21637;53.352;-6.356;2024-02-26T01:05:13;11.10;;;9.27;;
35530;SDS011;21637;53.352;-6.356;2024-02-26T01:07:39;14.65;;;10.10;;
35530;SDS011;21637;53.352;-6.356;2024-02-26T01:10:05;16.48;;;10.82;;
35530;SDS011;21637;53.352;-6.356;2024-02-26T01:12:32;19.98;;;11.32;;
35530;SDS011;21637;53.352;-6.356;2024-02-26T01:14:58;11.95;;;8.80;;
35530;SDS011;21637;53.352;-6.356;2024-02-26T01:17:24;11.70;;;9.50;;
35530;SDS011;21637;53.352;-6.356;2024-02-26T01:19:50;11.93;;;9.80;;
35530;SDS011;21637;53.352;-6.356;2024-02-26T01:22:16;16.65;;;10.57;;
35530;SDS011;21637;53.352;-6.356;2024-02-26T01:24:41;17.00;;;10.48;;
35530;SDS011;21637;53.352;-6.356;2024-02-26T01:27:07;14.95;;;9.93;;
35530;SDS011;21637;53.352;-6.356;2024-02-26T01:29:34;11.68;;;9.98;;
35530;SDS011;21637;53.352;-6.356;2024-02-26T01:31:59;14.30;;;10.60;;
35530;SDS011;21637;53.352;-6.356;2024-02-26T01:34:25;16.90;;;10.35;;
35530;SDS011;21637;53.352;-6.356;2024-02-26T01:36:51;14.85;;;10.60;;
35530;SDS011;21637;53.352;-6.356;2024-02-26T01:39:17;15.05;;;10.45;;
35530;SDS011;21637;53.352;-6.356;2024-02-26T01:41:43;15.18;;;10.55;;
35530;SDS011;21637;53.352;-6.356;2024-02-26T01:44:10;16.60;;;11.35;;
35530;SDS011;21637;53.352;-6.356;2024-02-26T01:46:38;13.70;;;10.48;;
35530;SDS011;21637;53.352;-6.356;2024-02-26T01:49:04;15.65;;;10.88;;
35530;SDS011;21637;53.352;-6.356;2024-02-26T01:51:31;14.48;;;10.35;;
35530;SDS011;21637;53.352;-6.356;2024-02-26T01:53:58;11.27;;;9.10;;
35530;SDS011;21637;53.352;-6.356;2024-02-26T01:56:26;17.55;;;10.00;;
35530;SDS011;21637;53.352;-6.356;2024-02-26T01:58:57;12.70;;;9.23;;
35530;SDS011;21637;53.352;-6.356;2024-02-26T02:01:32;13.07;;;9.57;;
35530;SDS011;21637;53.352;-6.356;2024-02-26T02:04:00;14.95;;;9.30;;
35530;SDS011;21637;53.352;-6.356;2024-02-26T02:06:26;15.10;;;9.43;;
35530;SDS011;21637;53.352;-6.356;2024-02-26T02:08:54;13.00;;;8.57;;
35530;SDS011;21637;53.352;-6.356;2024-02-26T02:11:20;14.10;;;9.13;;
35530;SDS011;21637;53.352;-6.356;2024-02-26T02:13:46;11.90;;;8.50;;
35530;SDS011;21637;53.352;-6.356;2024-02-26T02:16:12;11.10;;;8.18;;
35530;SDS011;21637;53.352;-6.356;2024-02-26T02:18:38;11.70;;;8.50;;
35530;SDS011;21637;53.352;-6.356;2024-02-26T02:21:04;14.05;;;8.20;;
35530;SDS011;21637;53.352;-6.356;2024-02-26T02:23:29;17.73;;;9.25;;
35530;SDS011;21637;53.352;-6.356;2024-02-26T02:25:56;11.15;;;7.95;;
35530;SDS011;21637;53.352;-6.356;2024-02-26T02:28:23;17.92;;;9.50;;
35530;SDS011;21637;53.352;-6.356;2024-02-26T02:30:51;16.40;;;8.95;;
35530;SDS011;21637;53.352;-6.356;2024-02-26T02:33:17;11.65;;;9.23;;
35530;SDS011;21637;53.352;-6.356;2024-02-26T02:35:43;14.25;;;9.25;;
35530;SDS011;21637;53.352;-6.356;2024-02-26T02:38:08;12.30;;;8.48;;
35530;SDS011;21637;53.352;-6.356;2024-02-26T02:40:34;11.30;;;9.70;;
35530;SDS011;21637;53.352;-6.356;2024-02-26T02:43:00;14.52;;;8.95;;
35530;SDS011;21637;53.352;-6.356;2024-02-26T02:45:27;11.00;;;8.35;;
35530;SDS011;21637;53.352;-6.356;2024-02-26T02:47:53;11.05;;;8.40;;
35530;SDS011;21637;53.352;-6.356;2024-02-26T02:50:19;12.00;;;9.27;;
35530;SDS011;21637;53.352;-6.356;2024-02-26T02:52:45;14.05;;;8.82;;
35530;SDS011;21637;53.352;-6.356;2024-02-26T02:55:11;10.80;;;8.77;;
35530;SDS011;21637;53.352;-6.356;2024-02-26T02:57:37;12.05;;;8.45;;
35530;SDS011;21637;53.352;-6.356;2024-02-26T03:00:09;12.63;;;8.98;;
35530;SDS011;21637;53.352;-6.356;2024-02-26T03:02:35;11.77;;;9.07;;
35530;SDS011;21637;53.352;-6.356;2024-02-26T03:05:05;14.50;;;9.30;;
35530;SDS011;21637;53.352;-6.356;2024-02-26T03:07:31;10.90;;;8.07;;
35530;SDS011;21637;53.352;-6.356;2024-02-26T03:09:56;13.90;;;8.98;;
35530;SDS011;21637;53.352;-6.356;2024-02-26T03:12:22;10.70;;;8.40;;
35530;SDS011;21637;53.352;-6.356;2024-02-26T03:14:48;11.18;;;8.00;;
35530;SDS011;21637;53.352;-6.356;2024-02-26T03:17:14;11.63;;;8.18;;
35530;SDS011;21637;53.352;-6.356;2024-02-26T03:19:40;14.85;;;8.75;;
35530;SDS011;21637;53.352;-6.356;2024-02-26T03:22:06;14.40;;;9.20;;
35530;SDS011;21637;53.352;-6.356;2024-02-26T03:24:31;12.40;;;8.35;;
35530;SDS011;21637;53.352;-6.356;2024-02-26T03:26:57;11.32;;;8.45;;
35530;SDS011;21637;53.352;-6.356;2024-02-26T03:29:23;12.57;;;8.55;;
35530;SDS011;21637;53.352;-6.356;2024-02-26T03:31:49;16.08;;;8.52;;
35530;SDS011;21637;53.352;-6.356;2024-02-26T03:34:15;12.82;;;8.07;;
35530;SDS011;21637;53.352;-6.356;2024-02-26T03:36:42;12.13;;;8.32;;
35530;SDS011;21637;53.352;-6.356;2024-02-26T03:39:08;11.63;;;8.52;;
35530;SDS011;21637;53.352;-6.356;2024-02-26T03:41:34;12.07;;;8.60;;
35530;SDS011;21637;53.352;-6.356;2024-02-26T03:44:00;12.43;;;7.55;;
35530;SDS011;21637;53.352;-6.356;2024-02-26T03:46:26;11.45;;;8.52;;
35530;SDS011;21637;53.352;-6.356;2024-02-26T03:48:52;10.57;;;7.57;;
35530;SDS011;21637;53.352;-6.356;2024-02-26T03:51:17;13.13;;;7.68;;
35530;SDS011;21637;53.352;-6.356;2024-02-26T03:53:43;10.30;;;7.65;;
35530;SDS011;21637;53.352;-6.356;2024-02-26T03:56:11;15.45;;;7.43;;
35530;SDS011;21637;53.352;-6.356;2024-02-26T03:58:38;13.40;;;7.32;;
35530;SDS011;21637;53.352;-6.356;2024-02-26T04:01:07;11.07;;;6.72;;
35530;SDS011;21637;53.352;-6.356;2024-02-26T04:03:34;9.95;;;6.95;;
35530;SDS011;21637;53.352;-6.356;2024-02-26T04:06:00;12.23;;;6.80;;
35530;SDS011;21637;53.352;-6.356;2024-02-26T04:08:25;9.65;;;7.13;;
35530;SDS011;21637;53.352;-6.356;2024-02-26T04:10:51;8.45;;;6.55;;
35530;SDS011;21637;53.352;-6.356;2024-02-26T04:13:17;9.48;;;6.68;;
35530;SDS011;21637;53.352;-6.356;2024-02-26T04:15:45;8.95;;;6.40;;
35530;SDS011;21637;53.352;-6.356;2024-02-26T04:18:11;10.10;;;7.13;;
35530;SDS011;21637;53.352;-6.356;2024-02-26T04:20:38;11.80;;;6.60;;
35530;SDS011;21637;53.352;-6.356;2024-02-26T04:23:03;8.45;;;6.75;;
35530;SDS011;21637;53.352;-6.356;2024-02-26T04:25:30;10.65;;;6.53;;
35530;SDS011;21637;53.352;-6.356;2024-02-26T04:27:55;10.13;;;6.13;;
35530;SDS011;21637;53.352;-6.356;2024-02-26T04:30:21;15.88;;;6.82;;
35530;SDS011;21637;53.352;-6.356;2024-02-26T04:32:47;12.52;;;6.43;;
35530;SDS011;21637;53.352;-6.356;2024-02-26T04:35:13;11.77;;;6.20;;
35530;SDS011;21637;53.352;-6.356;2024-02-26T04:37:38;8.70;;;5.90;;
35530;SDS011;21637;53.352;-6.356;2024-02-26T04:40:04;8.88;;;6.38;;
35530;SDS011;21637;53.352;-6.356;2024-02-26T04:42:31;8.48;;;5.57;;
35530;SDS011;21637;53.352;-6.356;2024-02-26T04:44:57;7.15;;;5.50;;
35530;SDS011;21637;53.352;-6.356;2024-02-26T04:47:22;7.18;;;5.13;;
35530;SDS011;21637;53.352;-6.356;2024-02-26T04:49:51;9.07;;;5.55;;
35530;SDS011;21637;53.352;-6.356;2024-02-26T04:52:18;7.10;;;4.82;;
35530;SDS011;21637;53.352;-6.356;2024-02-26T04:54:44;7.63;;;4.85;;
35530;SDS011;21637;53.352;-6.356;2024-02-26T04:57:09;12.98;;;5.05;;
35530;SDS011;21637;53.352;-6.356;2024-02-26T04:59:35;8.05;;;4.68;;
35530;SDS011;21637;53.352;-6.356;2024-02-26T05:02:01;7.90;;;4.80;;
35530;SDS011;21637;53.352;-6.356;2024-02-26T05:04:27;8.20;;;4.68;;
35530;SDS011;21637;53.352;-6.356;2024-02-26T05:06:53;7.50;;;4.78;;
35530;SDS011;21637;53.352;-6.356;2024-02-26T05:09:18;7.20;;;4.07;;
35530;SDS011;21637;53.352;-6.356;2024-02-26T05:11:45;6.13;;;4.03;;
35530;SDS011;21637;53.352;-6.356;2024-02-26T05:14:10;6.18;;;4.25;;
35530;SDS011;21637;53.352;-6.356;2024-02-26T05:16:36;5.30;;;3.97;;
35530;SDS011;21637;53.352;-6.356;2024-02-26T05:19:02;9.63;;;4.32;;
35530;SDS011;21637;53.352;-6.356;2024-02-26T05:21:28;6.22;;;3.97;;
35530;SDS011;21637;53.352;-6.356;2024-02-26T05:23:54;7.85;;;4.10;;
35530;SDS011;21637;53.352;-6.356;2024-02-26T05:26:20;9.15;;;4.07;;
35530;SDS011;21637;53.352;-6.356;2024-02-26T05:28:49;4.68;;;3.80;;
35530;SDS011;21637;53.352;-6.356;2024-02-26T05:31:15;6.65;;;3.70;;
35530;SDS011;21637;53.352;-6.356;2024-02-26T05:33:43;5.28;;;3.83;;
35530;SDS011;21637;53.352;-6.356;2024-02-26T05:36:08;6.45;;;3.80;;
35530;SDS011;21637;53.352;-6.356;2024-02-26T05:38:34;8.05;;;3.55;;
35530;SDS011;21637;53.352;-6.356;2024-02-26T05:41:00;6.50;;;3.55;;
35530;SDS011;21637;53.352;-6.356;2024-02-26T05:43:26;8.95;;;3.92;;
35530;SDS011;21637;53.352;-6.356;2024-02-26T05:45:53;6.15;;;3.40;;
35530;SDS011;21637;53.352;-6.356;2024-02-26T05:48:19;6.82;;;3.40;;
35530;SDS011;21637;53.352;-6.356;2024-02-26T05:50:48;7.53;;;4.05;;
35530;SDS011;21637;53.352;-6.356;2024-02-26T05:53:14;5.53;;;3.38;;
35530;SDS011;21637;53.352;-6.356;2024-02-26T05:55:40;5.70;;;3.50;;
35530;SDS011;21637;53.352;-6.356;2024-02-26T05:58:05;4.15;;;3.30;;
35530;SDS011;21637;53.352;-6.356;2024-02-26T06:00:31;5.65;;;3.28;;
35530;SDS011;21637;53.352;-6.356;2024-02-26T06:02:57;4.28;;;2.85;;
35530;SDS011;21637;53.352;-6.356;2024-02-26T06:05:23;5.65;;;3.55;;
35530;SDS011;21637;53.352;-6.356;2024-02-26T06:07:48;8.02;;;3.63;;
35530;SDS011;21637;53.352;-6.356;2024-02-26T06:10:14;7.57;;;3.35;;
35530;SDS011;21637;53.352;-6.356;2024-02-26T06:12:40;4.43;;;3.22;;
35530;SDS011;21637;53.352;-6.356;2024-02-26T06:15:06;7.82;;;3.13;;
35530;SDS011;21637;53.352;-6.356;2024-02-26T06:17:32;4.30;;;3.10;;
35530;SDS011;21637;53.352;-6.356;2024-02-26T06:19:59;6.90;;;3.58;;
35530;SDS011;21637;53.352;-6.356;2024-02-26T06:22:25;6.53;;;3.67;;
35530;SDS011;21637;53.352;-6.356;2024-02-26T06:24:51;5.90;;;3.30;;
35530;SDS011;21637;53.352;-6.356;2024-02-26T06:27:17;7.15;;;2.92;;
35530;SDS011;21637;53.352;-6.356;2024-02-26T06:29:42;7.95;;;3.40;;
35530;SDS011;21637;53.352;-6.356;2024-02-26T06:32:08;6.07;;;2.85;;
35530;SDS011;21637;53.352;-6.356;2024-02-26T06:34:34;10.07;;;3.45;;
35530;SDS011;21637;53.352;-6.356;2024-02-26T06:37:00;6.18;;;2.75;;
35530;SDS011;21637;53.352;-6.356;2024-02-26T06:39:25;8.88;;;2.60;;
35530;SDS011;21637;53.352;-6.356;2024-02-26T06:41:51;6.57;;;2.60;;
35530;SDS011;21637;53.352;-6.356;2024-02-26T06:44:24;9.95;;;3.20;;
35530;SDS011;21637;53.352;-6.356;2024-02-26T06:46:51;7.82;;;3.00;;
35530;SDS011;21637;53.352;-6.356;2024-02-26T06:49:16;6.90;;;2.45;;
35530;SDS011;21637;53.352;-6.356;2024-02-26T06:51:42;6.25;;;3.05;;
35530;SDS011;21637;53.352;-6.356;2024-02-26T06:54:08;7.93;;;3.10;;
35530;SDS011;21637;53.352;-6.356;2024-02-26T06:56:34;5.03;;;2.70;;
35530;SDS011;21637;53.352;-6.356;2024-02-26T06:59:00;9.38;;;3.33;;
35530;SDS011;21637;53.352;-6.356;2024-02-26T07:01:26;11.27;;;2.58;;
35530;SDS011;21637;53.352;-6.356;2024-02-26T07:03:51;7.28;;;2.85;;
35530;SDS011;21637;53.352;-6.356;2024-02-26T07:06:17;6.85;;;2.38;;
35530;SDS011;21637;53.352;-6.356;2024-02-26T07:08:43;4.60;;;2.03;;
35530;SDS011;21637;53.352;-6.356;2024-02-26T07:11:08;3.92;;;2.60;;
35530;SDS011;21637;53.352;-6.356;2024-02-26T07:13:35;9.75;;;2.17;;
35530;SDS011;21637;53.352;-6.356;2024-02-26T07:16:01;5.88;;;2.80;;
35530;SDS011;21637;53.352;-6.356;2024-02-26T07:18:27;3.47;;;2.20;;
35530;SDS011;21637;53.352;-6.356;2024-02-26T07:20:53;8.00;;;2.72;;
35530;SDS011;21637;53.352;-6.356;2024-02-26T07:23:19;5.88;;;2.70;;
35530;SDS011;21637;53.352;-6.356;2024-02-26T07:25:45;7.18;;;2.60;;
35530;SDS011;21637;53.352;-6.356;2024-02-26T07:28:13;8.68;;;2.47;;
35530;SDS011;21637;53.352;-6.356;2024-02-26T07:30:39;4.43;;;2.00;;
35530;SDS011;21637;53.352;-6.356;2024-02-26T07:33:05;6.13;;;2.00;;
35530;SDS011;21637;53.352;-6.356;2024-02-26T07:35:31;6.07;;;2.80;;
35530;SDS011;21637;53.352;-6.356;2024-02-26T07:37:58;7.35;;;2.40;;
35530;SDS011;21637;53.352;-6.356;2024-02-26T07:40:24;8.32;;;2.97;;
35530;SDS011;21637;53.352;-6.356;2024-02-26T07:42:50;6.40;;;2.38;;
35530;SDS011;21637;53.352;-6.356;2024-02-26T07:45:16;10.48;;;2.38;;
35530;SDS011;21637;53.352;-6.356;2024-02-26T07:47:44;7.78;;;2.10;;
35530;SDS011;21637;53.352;-6.356;2024-02-26T07:50:11;10.52;;;2.20;;
35530;SDS011;21637;53.352;-6.356;2024-02-26T07:52:37;8.13;;;2.42;;
35530;SDS011;21637;53.352;-6.356;2024-02-26T07:55:03;8.02;;;2.03;;
35530;SDS011;21637;53.352;-6.356;2024-02-26T07:57:30;8.25;;;2.95;;
35530;SDS011;21637;53.352;-6.356;2024-02-26T07:59:56;8.45;;;2.63;;
35530;SDS011;21637;53.352;-6.356;2024-02-26T08:02:22;8.82;;;1.90;;
35530;SDS011;21637;53.352;-6.356;2024-02-26T08:04:47;6.47;;;2.22;;
35530;SDS011;21637;53.352;-6.356;2024-02-26T08:07:13;6.25;;;2.20;;
35530;SDS011;21637;53.352;-6.356;2024-02-26T08:09:39;10.25;;;3.08;;
35530;SDS011;21637;53.352;-6.356;2024-02-26T08:12:05;4.88;;;2.05;;
35530;SDS011;21637;53.352;-6.356;2024-02-26T08:14:31;11.18;;;2.28;;
35530;SDS011;21637;53.352;-6.356;2024-02-26T08:16:57;6.70;;;1.92;;
35530;SDS011;21637;53.352;-6.356;2024-02-26T08:19:24;9.70;;;1.90;;
35530;SDS011;21637;53.352;-6.356;2024-02-26T08:21:50;5.90;;;1.95;;
35530;SDS011;21637;53.352;-6.356;2024-02-26T08:24:15;12.30;;;1.92;;
35530;SDS011;21637;53.352;-6.356;2024-02-26T08:26:41;4.90;;;1.30;;
35530;SDS011;21637;53.352;-6.356;2024-02-26T08:29:07;6.50;;;1.55;;
35530;SDS011;21637;53.352;-6.356;2024-02-26T08:31:33;5.25;;;1.42;;
35530;SDS011;21637;53.352;-6.356;2024-02-26T08:34:01;4.00;;;1.40;;
35530;SDS011;21637;53.352;-6.356;2024-02-26T08:36:28;7.15;;;1.50;;
35530;SDS011;21637;53.352;-6.356;2024-02-26T08:38:53;4.05;;;1.20;;
35530;SDS011;21637;53.352;-6.356;2024-02-26T08:41:19;6.15;;;1.55;;
35530;SDS011;21637;53.352;-6.356;2024-02-26T08:43:45;5.65;;;1.45;;
35530;SDS011;21637;53.352;-6.356;2024-02-26T08:46:12;3.60;;;1.27;;
35530;SDS011;21637;53.352;-6.356;2024-02-26T08:48:38;9.27;;;2.22;;
35530;SDS011;21637;53.352;-6.356;2024-02-26T08:51:05;8.88;;;1.70;;
35530;SDS011;21637;53.352;-6.356;2024-02-26T08:53:32;5.15;;;1.23;;
35530;SDS011;21637;53.352;-6.356;2024-02-26T08:55:57;5.53;;;1.25;;
35530;SDS011;21637;53.352;-6.356;2024-02-26T08:58:23;4.35;;;0.80;;
35530;SDS011;21637;53.352;-6.356;2024-02-26T09:00:49;3.60;;;0.82;;
35530;SDS011;21637;53.352;-6.356;2024-02-26T09:03:15;3.65;;;1.20;;
35530;SDS011;21637;53.352;-6.356;2024-02-26T09:05:41;4.00;;;1.13;;
35530;SDS011;21637;53.352;-6.356;2024-02-26T09:08:07;3.25;;;1.10;;
35530;SDS011;21637;53.352;-6.356;2024-02-26T09:10:33;4.00;;;1.27;;
35530;SDS011;21637;53.352;-6.356;2024-02-26T09:12:58;4.85;;;1.20;;
35530;SDS011;21637;53.352;-6.356;2024-02-26T09:15:24;6.22;;;1.02;;
35530;SDS011;21637;53.352;-6.356;2024-02-26T09:17:50;7.00;;;1.45;;
35530;SDS011;21637;53.352;-6.356;2024-02-26T09:20:17;7.13;;;1.73;;
35530;SDS011;21637;53.352;-6.356;2024-02-26T09:22:46;4.03;;;1.50;;
35530;SDS011;21637;53.352;-6.356;2024-02-26T09:25:13;6.35;;;1.30;;
35530;SDS011;21637;53.352;-6.356;2024-02-26T09:27:41;4.97;;;1.08;;
35530;SDS011;21637;53.352;-6.356;2024-02-26T09:30:10;5.60;;;1.40;;
35530;SDS011;21637;53.352;-6.356;2024-02-26T09:32:37;6.63;;;0.98;;
35530;SDS011;21637;53.352;-6.356;2024-02-26T09:35:03;1.90;;;1.00;;
35530;SDS011;21637;53.352;-6.356;2024-02-26T09:37:29;5.80;;;1.45;;
35530;SDS011;21637;53.352;-6.356;2024-02-26T09:39:55;4.82;;;1.23;;
35530;SDS011;21637;53.352;-6.356;2024-02-26T09:42:21;2.03;;;1.00;;
35530;SDS011;21637;53.352;-6.356;2024-02-26T09:44:50;3.20;;;1.00;;
35530;SDS011;21637;53.352;-6.356;2024-02-26T09:47:19;3.75;;;1.20;;
35530;SDS011;21637;53.352;-6.356;2024-02-26T09:49:46;7.72;;;1.20;;
35530;SDS011;21637;53.352;-6.356;2024-02-26T09:52:13;2.63;;;0.98;;
35530;SDS011;21637;53.352;-6.356;2024-02-26T09:54:42;6.57;;;0.75;;
35530;SDS011;21637;53.352;-6.356;2024-02-26T09:57:12;5.10;;;0.85;;
35530;SDS011;21637;53.352;-6.356;2024-02-26T09:59:41;5.65;;;1.00;;
35530;SDS011;21637;53.352;-6.356;2024-02-26T10:02:16;4.18;;;0.80;;
35530;SDS011;21637;53.352;-6.356;2024-02-26T10:04:45;4.70;;;0.98;;
35530;SDS011;21637;53.352;-6.356;2024-02-26T10:07:12;2.05;;;1.08;;
35530;SDS011;21637;53.352;-6.356;2024-02-26T10:09:39;9.88;;;1.17;;
35530;SDS011;21637;53.352;-6.356;2024-02-26T10:12:06;3.35;;;0.90;;
35530;SDS011;21637;53.352;-6.356;2024-02-26T10:14:34;6.25;;;1.23;;
35530;SDS011;21637;53.352;-6.356;2024-02-26T10:17:01;4.85;;;1.33;;
35530;SDS011;21637;53.352;-6.356;2024-02-26T10:19:28;8.00;;;1.10;;
35530;SDS011;21637;53.352;-6.356;2024-02-26T10:21:58;5.43;;;1.00;;
35530;SDS011;21637;53.352;-6.356;2024-02-26T10:24:25;4.05;;;1.00;;
35530;SDS011;21637;53.352;-6.356;2024-02-26T10:26:54;7.22;;;1.10;;
35530;SDS011;21637;53.352;-6.356;2024-02-26T10:29:21;4.30;;;0.90;;
35530;SDS011;21637;53.352;-6.356;2024-02-26T10:31:50;5.57;;;1.08;;
35530;SDS011;21637;53.352;-6.356;2024-02-26T10:34:16;2.53;;;0.85;;
35530;SDS011;21637;53.352;-6.356;2024-02-26T10:36:42;2.33;;;0.60;;
35530;SDS011;21637;53.352;-6.356;2024-02-26T10:39:08;4.25;;;0.70;;
35530;SDS011;21637;53.352;-6.356;2024-02-26T10:41:36;2.45;;;0.93;;
35530;SDS011;21637;53.352;-6.356;2024-02-26T10:44:03;2.72;;;0.90;;
35530;SDS011;21637;53.352;-6.356;2024-02-26T10:46:29;5.15;;;1.10;;
35530;SDS011;21637;53.352;-6.356;2024-02-26T10:48:54;3.65;;;0.85;;
35530;SDS011;21637;53.352;-6.356;2024-02-26T10:51:28;3.08;;;0.70;;
35530;SDS011;21637;53.352;-6.356;2024-02-26T10:53:55;6.40;;;0.98;;
35530;SDS011;21637;53.352;-6.356;2024-02-26T10:56:24;3.78;;;0.85;;
35530;SDS011;21637;53.352;-6.356;2024-02-26T10:58:55;4.38;;;0.98;;
35530;SDS011;21637;53.352;-6.356;2024-02-26T11:01:21;3.17;;;0.63;;
35530;SDS011;21637;53.352;-6.356;2024-02-26T11:03:51;6.55;;;1.25;;
35530;SDS011;21637;53.352;-6.356;2024-02-26T11:06:18;3.70;;;0.75;;
35530;SDS011;21637;53.352;-6.356;2024-02-26T11:08:49;6.10;;;0.75;;
35530;SDS011;21637;53.352;-6.356;2024-02-26T11:11:16;4.93;;;0.70;;
35530;SDS011;21637;53.352;-6.356;2024-02-26T11:13:43;1.88;;;0.60;;
35530;SDS011;21637;53.352;-6.356;2024-02-26T11:16:15;2.70;;;1.10;;
35530;SDS011;21637;53.352;-6.356;2024-02-26T11:18:47;3.60;;;0.82;;
35530;SDS011;21637;53.352;-6.356;2024-02-26T11:21:16;4.63;;;0.70;;
35530;SDS011;21637;53.352;-6.356;2024-02-26T11:23:52;4.40;;;0.90;;
35530;SDS011;21637;53.352;-6.356;2024-02-26T11:26:18;4.18;;;0.55;;
35530;SDS011;21637;53.352;-6.356;2024-02-26T11:28:46;3.65;;;0.65;;
35530;SDS011;21637;53.352;-6.356;2024-02-26T11:31:13;2.30;;;0.50;;
35530;SDS011;21637;53.352;-6.356;2024-02-26T11:33:39;2.15;;;0.50;;
35530;SDS011;21637;53.352;-6.356;2024-02-26T11:36:08;4.38;;;0.45;;
35530;SDS011;21637;53.352;-6.356;2024-02-26T11:38:39;2.20;;;0.70;;
35530;SDS011;21637;53.352;-6.356;2024-02-26T11:41:05;2.28;;;0.60;;
35530;SDS011;21637;53.352;-6.356;2024-02-26T11:46:32;6.25;;;1.10;;
35530;SDS011;21637;53.352;-6.356;2024-02-26T11:49:29;6.05;;;1.00;;
35530;SDS011;21637;53.352;-6.356;2024-02-26T11:51:52;3.92;;;0.80;;
35530;SDS011;21637;53.352;-6.356;2024-02-26T11:59:52;6.97;;;0.68;;
35530;SDS011;21637;53.352;-6.356;2024-02-26T12:05:08;2.88;;;0.98;;
35530;SDS011;21637;53.352;-6.356;2024-02-26T12:07:39;9.13;;;1.05;;
35530;SDS011;21637;53.352;-6.356;2024-02-26T12:10:25;4.75;;;0.65;;
35530;SDS011;21637;53.352;-6.356;2024-02-26T12:13:05;5.97;;;1.00;;
35530;SDS011;21637;53.352;-6.356;2024-02-26T12:15:42;1.55;;;0.50;;
35530;SDS011;21637;53.352;-6.356;2024-02-26T12:18:20;8.13;;;1.05;;
35530;SDS011;21637;53.352;-6.356;2024-02-26T12:20:47;3.60;;;0.60;;
35530;SDS011;21637;53.352;-6.356;2024-02-26T12:23:26;6.15;;;0.52;;
35530;SDS011;21637;53.352;-6.356;2024-02-26T12:25:53;6.80;;;0.70;;
35530;SDS011;21637;53.352;-6.356;2024-02-26T12:28:27;2.47;;;0.50;;
35530;SDS011;21637;53.352;-6.356;2024-02-26T12:30:55;2.35;;;0.30;;
35530;SDS011;21637;53.352;-6.356;2024-02-26T12:33:24;0.80;;;0.38;;
35530;SDS011;21637;53.352;-6.356;2024-02-26T12:35:51;3.53;;;0.68;;
35530;SDS011;21637;53.352;-6.356;2024-02-26T12:38:18;5.07;;;0.60;;
35530;SDS011;21637;53.352;-6.356;2024-02-26T12:40:44;2.33;;;1.35;;
35530;SDS011;21637;53.352;-6.356;2024-02-26T12:43:10;2.55;;;0.93;;
35530;SDS011;21637;53.352;-6.356;2024-02-26T12:45:42;4.03;;;0.82;;
35530;SDS011;21637;53.352;-6.356;2024-02-26T12:48:12;2.55;;;0.90;;
35530;SDS011;21637;53.352;-6.356;2024-02-26T12:50:38;2.15;;;0.63;;
35530;SDS011;21637;53.352;-6.356;2024-02-26T12:53:04;2.67;;;0.43;;
35530;SDS011;21637;53.352;-6.356;2024-02-26T12:55:31;3.38;;;0.70;;
35530;SDS011;21637;53.352;-6.356;2024-02-26T12:57:59;3.17;;;0.70;;
35530;SDS011;21637;53.352;-6.356;2024-02-26T13:00:26;3.97;;;1.48;;
35530;SDS011;21637;53.352;-6.356;2024-02-26T13:02:53;2.22;;;0.55;;
35530;SDS011;21637;53.352;-6.356;2024-02-26T13:05:20;4.78;;;0.70;;
35530;SDS011;21637;53.352;-6.356;2024-02-26T13:07:47;4.75;;;0.70;;
35530;SDS011;21637;53.352;-6.356;2024-02-26T13:10:13;3.25;;;0.82;;
35530;SDS011;21637;53.352;-6.356;2024-02-26T13:12:46;4.47;;;0.80;;
35530;SDS011;21637;53.352;-6.356;2024-02-26T13:15:16;4.40;;;0.60;;
35530;SDS011;21637;53.352;-6.356;2024-02-26T13:17:43;1.65;;;0.60;;
35530;SDS011;21637;53.352;-6.356;2024-02-26T13:20:10;4.30;;;0.75;;
35530;SDS011;21637;53.352;-6.356;2024-02-26T13:22:37;2.70;;;0.77;;
35530;SDS011;21637;53.352;-6.356;2024-02-26T13:25:03;4.13;;;1.10;;
35530;SDS011;21637;53.352;-6.356;2024-02-26T13:27:29;2.22;;;0.73;;
35530;SDS011;21637;53.352;-6.356;2024-02-26T13:32:52;3.53;;;0.85;;
35530;SDS011;21637;53.352;-6.356;2024-02-26T13:35:18;2.97;;;0.82;;
35530;SDS011;21637;53.352;-6.356;2024-02-26T13:37:44;2.97;;;0.80;;
35530;SDS011;21637;53.352;-6.356;2024-02-26T13:40:10;3.38;;;0.80;;
35530;SDS011;21637;53.352;-6.356;2024-02-26T13:42:36;3.00;;;0.63;;
35530;SDS011;21637;53.352;-6.356;2024-02-26T13:45:03;3.40;;;0.73;;
35530;SDS011;21637;53.352;-6.356;2024-02-26T13:47:33;6.50;;;0.90;;
35530;SDS011;21637;53.352;-6.356;2024-02-26T13:49:59;2.20;;;0.77;;
35530;SDS011;21637;53.352;-6.356;2024-02-26T13:52:26;2.83;;;0.68;;
35530;SDS011;21637;53.352;-6.356;2024-02-26T13:54:51;3.83;;;0.70;;
35530;SDS011;21637;53.352;-6.356;2024-02-26T13:57:18;2.47;;;0.70;;
35530;SDS011;21637;53.352;-6.356;2024-02-26T13:59:44;11.15;;;1.83;;
35530;SDS011;21637;53.352;-6.356;2024-02-26T14:02:10;4.25;;;0.90;;
35530;SDS011;21637;53.352;-6.356;2024-02-26T14:04:37;2.33;;;0.80;;
35530;SDS011;21637;53.352;-6.356;2024-02-26T14:07:03;2.60;;;0.90;;
35530;SDS011;21637;53.352;-6.356;2024-02-26T14:09:29;1.63;;;0.63;;
35530;SDS011;21637;53.352;-6.356;2024-02-26T14:11:55;3.95;;;1.05;;
35530;SDS011;21637;53.352;-6.356;2024-02-26T14:14:21;6.95;;;0.85;;
35530;SDS011;21637;53.352;-6.356;2024-02-26T14:16:47;4.82;;;0.88;;
35530;SDS011;21637;53.352;-6.356;2024-02-26T14:19:12;2.53;;;0.93;;
35530;SDS011;21637;53.352;-6.356;2024-02-26T14:21:38;4.35;;;1.27;;
35530;SDS011;21637;53.352;-6.356;2024-02-26T14:24:04;5.20;;;0.73;;
35530;SDS011;21637;53.352;-6.356;2024-02-26T14:26:30;5.72;;;1.00;;
35530;SDS011;21637;53.352;-6.356;2024-02-26T14:28:56;4.88;;;0.85;;
35530;SDS011;21637;53.352;-6.356;2024-02-26T14:31:21;4.10;;;0.88;;
35530;SDS011;21637;53.352;-6.356;2024-02-26T14:33:47;6.18;;;1.05;;
35530;SDS011;21637;53.352;-6.356;2024-02-26T14:36:13;3.75;;;0.60;;
35530;SDS011;21637;53.352;-6.356;2024-02-26T14:38:39;3.85;;;0.85;;
35530;SDS011;21637;53.352;-6.356;2024-02-26T14:41:05;4.35;;;0.93;;
35530;SDS011;21637;53.352;-6.356;2024-02-26T14:43:31;3.95;;;0.98;;